Time;durP1;ratioP1;P1;durP2;ratioP2;P2;SDS_P1;SDS_P2;PMS_P1;PMS_P2;Temp;Humidity;BMP_temperature;BMP_pressure;BME280_temperature;BME280_humidity;BME280_pressure;Samples;Min_cycle;Max_cycle;Signal;HPM_P1;HPM_P2
2021/05/10 00:01:31;;;;;;;15.85;2.95;;;;;;;14.06;70.87;98512.00;4390736;32;20114;-77
2021/05/10 00:03:57;;;;;;;17.33;3.10;;;;;;;14.09;70.66;98500.41;4393247;32;20105;-78
2021/05/10 00:06:23;;;;;;;12.75;2.87;;;;;;;14.10;70.69;98495.53;4392285;32;20066;-78
2021/05/10 00:08:48;;;;;;;14.30;3.35;;;;;;;14.19;70.30;98498.09;4394620;32;20077;-78
2021/05/10 00:11:14;;;;;;;13.70;3.17;;;;;;;14.11;70.28;98487.81;4393054;32;20043;-77
2021/05/10 00:13:46;;;;;;;19.25;4.78;;;;;;;14.17;70.27;98494.25;4392793;32;20050;-77
2021/05/10 00:16:12;;;;;;;14.93;3.55;;;;;;;14.17;70.58;98491.41;4393548;32;20077;-77
2021/05/10 00:18:38;;;;;;;20.70;3.55;;;;;;;14.23;70.30;98490.13;4395146;32;20136;-79
2021/05/10 00:21:04;;;;;;;16.52;3.37;;;;;;;14.19;70.34;98483.16;4392510;32;20058;-77
2021/05/10 00:23:29;;;;;;;17.55;4.72;;;;;;;14.19;70.38;98483.16;4391353;32;20082;-79
2021/05/10 00:25:55;;;;;;;14.43;3.22;;;;;;;14.20;70.04;98487.56;4394097;32;20129;-79
2021/05/10 00:28:21;;;;;;;16.70;2.90;;;;;;;14.22;69.96;98494.22;4392236;32;20435;-77
2021/05/10 00:30:46;;;;;;;28.20;4.40;;;;;;;14.24;69.96;98497.34;4366986;32;20112;-77
2021/05/10 00:33:13;;;;;;;12.48;2.83;;;;;;;14.27;69.78;98487.03;4392539;32;20482;-78
2021/05/10 00:35:38;;;;;;;15.38;3.58;;;;;;;14.19;70.22;98488.81;4393092;32;20071;-78
2021/05/10 00:38:04;;;;;;;17.08;3.40;;;;;;;14.25;70.05;98478.31;4395237;32;20038;-78
2021/05/10 00:40:31;;;;;;;10.85;2.85;;;;;;;14.29;69.79;98490.13;4393777;32;20404;-78
2021/05/10 00:42:57;;;;;;;12.48;3.00;;;;;;;14.35;69.45;98485.22;4391922;32;20386;-78
2021/05/10 00:45:24;;;;;;;14.13;3.03;;;;;;;14.23;69.79;98472.38;4391634;32;20070;-77
2021/05/10 00:47:51;;;;;;;13.73;3.10;;;;;;;14.18;70.29;98473.94;4394132;32;20065;-78
2021/05/10 00:50:18;;;;;;;11.90;3.22;;;;;;;14.11;70.79;98477.25;4389613;32;20051;-77
2021/05/10 00:52:44;;;;;;;13.25;3.72;;;;;;;14.06;71.18;98480.88;4392525;32;20042;-78
2021/05/10 00:55:11;;;;;;;15.77;3.30;;;;;;;13.98;71.43;98486.28;4392255;32;20130;-77
2021/05/10 00:57:40;;;;;;;20.52;3.67;;;;;;;13.99;71.66;98504.78;4391077;32;20046;-77
2021/05/10 01:00:08;;;;;;;14.98;3.33;;;;;;;14.05;71.44;98499.13;4390747;32;20136;-79
2021/05/10 01:02:34;;;;;;;22.90;3.67;;;;;;;14.02;71.32;98475.47;4403322;32;20093;-78
2021/05/10 01:05:00;;;;;;;11.70;2.42;;;;;;;14.00;71.16;98469.56;4406463;32;20051;-78
2021/05/10 01:07:26;;;;;;;15.75;3.00;;;;;;;13.98;71.63;98471.38;4406684;32;20694;-78
2021/05/10 01:09:52;;;;;;;14.48;3.35;;;;;;;13.82;72.21;98477.81;4406681;32;20107;-78
2021/05/10 01:12:18;;;;;;;15.00;3.55;;;;;;;13.81;72.16;98476.28;4405157;32;20467;-78
2021/05/10 01:14:43;;;;;;;18.33;3.17;;;;;;;13.82;72.11;98472.16;4404669;32;20074;-78
2021/05/10 01:17:09;;;;;;;17.40;4.00;;;;;;;13.71;72.40;98469.34;4407763;32;20083;-78
2021/05/10 01:19:35;;;;;;;23.70;3.65;;;;;;;13.78;72.54;98478.06;4394947;32;20497;-78
2021/05/10 01:22:04;;;;;;;16.15;3.17;;;;;;;13.73;72.09;98473.22;4409749;32;20515;-78
2021/05/10 01:24:31;;;;;;;17.15;3.35;;;;;;;13.68;72.24;98459.84;4405806;32;20074;-78
2021/05/10 01:26:57;;;;;;;13.50;3.15;;;;;;;13.54;72.52;98463.72;4408005;32;20355;-78
2021/05/10 01:29:23;;;;;;;15.27;3.22;;;;;;;13.53;72.61;98467.06;4404430;32;20073;-78
2021/05/10 01:31:49;;;;;;;11.25;2.58;;;;;;;13.48;72.55;98462.94;4404710;32;20077;-78
2021/05/10 01:34:15;;;;;;;11.15;2.97;;;;;;;13.46;72.38;98468.31;4404908;32;20069;-78
2021/05/10 01:36:40;;;;;;;14.93;2.62;;;;;;;13.48;71.94;98470.63;4406067;32;20124;-78
2021/05/10 01:39:06;;;;;;;17.80;3.60;;;;;;;13.49;71.78;98470.13;4397882;32;20049;-78
2021/05/10 01:41:33;;;;;;;15.10;2.92;;;;;;;13.47;71.69;98467.03;4396648;32;20136;-78
2021/05/10 01:43:59;;;;;;;18.05;3.10;;;;;;;13.46;71.69;98461.87;4404571;32;20132;-78
2021/05/10 01:46:25;;;;;;;16.23;2.78;;;;;;;13.43;71.68;98451.63;4406456;32;20049;-78
2021/05/10 01:48:51;;;;;;;18.98;2.83;;;;;;;13.42;71.50;98450.09;4407118;32;20038;-78
2021/05/10 01:51:22;;;;;;;16.10;2.97;;;;;;;13.43;71.31;98458.03;4407627;32;20034;-78
2021/05/10 01:53:48;;;;;;;16.17;2.87;;;;;;;13.32;71.42;98460.84;4404761;32;20483;-78
2021/05/10 01:56:14;;;;;;;19.55;4.53;;;;;;;13.14;72.02;98455.72;4406446;32;20108;-78
2021/05/10 01:58:39;;;;;;;15.63;2.65;;;;;;;13.11;72.31;98458.78;4405497;32;20086;-78
2021/05/10 02:01:05;;;;;;;14.43;2.80;;;;;;;12.95;73.10;98454.59;4404758;32;20090;-78
2021/05/10 02:03:31;;;;;;;8.75;2.83;;;;;;;12.96;73.18;98464.62;4402552;32;20090;-78
2021/05/10 02:05:56;;;;;;;12.48;2.50;;;;;;;12.91;73.03;98448.44;4395708;32;20065;-78
2021/05/10 02:08:23;;;;;;;15.73;3.22;;;;;;;12.97;73.21;98456.91;4385194;32;20070;-78
2021/05/10 02:10:51;;;;;;;13.93;2.80;;;;;;;12.87;73.47;98459.22;4400919;32;20047;-78
2021/05/10 02:13:20;;;;;;;20.00;3.30;;;;;;;12.90;73.28;98461.00;4404721;32;20099;-78
2021/05/10 02:18:25;;;;;;;19.02;3.33;;;;;;;13.32;72.16;98477.78;3979501;31;15711245;-77
2021/05/10 02:20:51;;;;;;;15.07;3.10;;;;;;;13.32;72.16;98477.78;4443280;32;20487;-78
2021/05/10 02:23:20;;;;;;;14.25;2.92;;;;;;;12.96;72.89;98475.91;4457281;32;20071;-78
2021/05/10 02:25:48;;;;;;;16.08;3.70;;;;;;;13.00;72.93;98484.16;4457717;32;20135;-78
2021/05/10 02:28:16;;;;;;;14.13;3.35;;;;;;;13.07;72.64;98484.41;4457704;32;20389;-78
2021/05/10 02:30:42;;;;;;;20.48;3.65;;;;;;;13.02;72.54;98475.94;4456689;32;20029;-78
2021/05/10 02:33:12;;;;;;;16.58;3.55;;;;;;;13.07;72.29;98469.56;4456868;32;20151;-78
2021/05/10 02:35:38;;;;;;;19.23;4.00;;;;;;;13.15;72.04;98462.88;4458761;32;20080;-77
2021/05/10 02:38:04;;;;;;;21.17;4.28;;;;;;;12.96;72.70;98458.97;4457455;32;20102;-78
2021/05/10 02:40:30;;;;;;;25.55;3.67;;;;;;;12.92;72.93;98466.91;4456039;32;20049;-78
2021/05/10 02:42:56;;;;;;;15.63;3.30;;;;;;;13.01;72.60;98468.78;4442555;32;20647;-78
2021/05/10 02:45:22;;;;;;;22.52;3.87;;;;;;;12.96;72.74;98458.97;4457569;32;20041;-78
2021/05/10 02:47:49;;;;;;;17.05;3.58;;;;;;;12.95;72.68;98463.06;4458271;32;20044;-78
2021/05/10 02:50:18;;;;;;;13.13;3.30;;;;;;;12.88;73.10;98457.12;4455471;32;20074;-77
2021/05/10 02:52:45;;;;;;;15.77;3.90;;;;;;;12.90;72.74;98465.88;4457526;32;20059;-77
2021/05/10 02:55:11;;;;;;;18.05;3.37;;;;;;;12.80;73.49;98468.16;4458092;32;20051;-77
2021/05/10 02:57:37;;;;;;;19.33;4.45;;;;;;;12.91;73.10;98465.38;4458304;32;20436;-78
2021/05/10 03:00:08;;;;;;;17.15;4.28;;;;;;;12.91;72.84;98454.06;4455315;32;20108;-77
2021/05/10 03:02:34;;;;;;;19.58;4.75;;;;;;;13.03;72.51;98461.31;4440748;32;20081;-77
2021/05/10 03:05:00;;;;;;;15.15;3.83;;;;;;;12.96;72.81;98456.16;4440444;32;20042;-77
2021/05/10 03:07:26;;;;;;;23.20;5.53;;;;;;;12.94;72.90;98449.44;4442286;32;20102;-77
2021/05/10 03:09:52;;;;;;;19.85;4.18;;;;;;;12.95;72.67;98456.66;4439372;32;20077;-77
2021/05/10 03:12:17;;;;;;;17.50;4.87;;;;;;;12.96;72.69;98455.38;4440724;32;20128;-77
2021/05/10 03:14:43;;;;;;;16.45;3.87;;;;;;;12.98;72.10;98450.75;4438514;32;20076;-77
2021/05/10 03:17:09;;;;;;;16.40;3.87;;;;;;;12.90;72.79;98458.19;4438640;32;20058;-77
2021/05/10 03:19:35;;;;;;;22.00;4.20;;;;;;;12.85;73.21;98467.41;4439931;32;20487;-77
2021/05/10 03:22:01;;;;;;;15.90;4.07;;;;;;;12.87;73.25;98472.53;4440739;32;20052;-77
2021/05/10 03:24:27;;;;;;;15.50;3.83;;;;;;;12.80;73.17;98479.47;4439631;32;20735;-78
2021/05/10 03:26:53;;;;;;;18.65;4.32;;;;;;;12.80;73.59;98467.38;4442359;32;20041;-77
2021/05/10 03:29:18;;;;;;;15.10;4.43;;;;;;;12.74;73.70;98467.38;4431536;32;20678;-77
2021/05/10 03:31:44;;;;;;;17.35;4.07;;;;;;;12.66;73.81;98466.31;4429002;32;20438;-78
2021/05/10 03:34:10;;;;;;;23.90;4.62;;;;;;;12.63;73.98;98467.31;4429355;32;20817;-77
2021/05/10 03:36:36;;;;;;;21.50;3.87;;;;;;;12.66;73.91;98479.63;4419247;32;20088;-77
2021/05/10 03:39:04;;;;;;;13.90;3.45;;;;;;;12.65;73.79;98478.88;4430163;32;20076;-77
2021/05/10 03:41:29;;;;;;;21.08;4.28;;;;;;;12.53;74.47;98491.41;4425123;32;20068;-77
2021/05/10 03:43:58;;;;;;;16.55;3.87;;;;;;;12.53;74.51;98491.41;4430469;32;20065;-77
2021/05/10 03:46:25;;;;;;;17.10;4.32;;;;;;;12.54;74.08;98487.28;4429343;32;20056;-77
2021/05/10 03:48:50;;;;;;;19.92;4.10;;;;;;;12.53;74.33;98485.75;4428513;32;20057;-77
2021/05/10 03:51:16;;;;;;;15.45;3.47;;;;;;;12.50;74.22;98483.16;4430142;32;20050;-77
2021/05/10 03:53:42;;;;;;;15.68;3.62;;;;;;;12.53;74.23;98480.12;4427657;32;20101;-77
2021/05/10 03:56:10;;;;;;;16.30;4.18;;;;;;;12.60;73.71;98478.84;4429049;32;20086;-77
2021/05/10 03:58:37;;;;;;;13.75;3.20;;;;;;;12.61;73.51;98480.41;4416567;32;20471;-77
2021/05/10 04:01:03;;;;;;;17.77;4.30;;;;;;;12.45;74.04;98478.28;4432874;32;20073;-78
2021/05/10 04:03:34;;;;;;;20.92;4.40;;;;;;;12.38;74.40;98473.09;4427374;32;20077;-77
2021/05/10 04:14:01;;;;;;;25.80;4.10;;;;;;;12.33;74.59;98485.16;4438409;32;20386;-78
2021/05/10 04:16:28;;;;;;;23.95;5.62;;;;;;;12.24;75.15;98479.72;4434964;32;20053;-78
2021/05/10 04:18:54;;;;;;;19.30;5.43;;;;;;;12.21;75.08;98470.19;4440108;32;20524;-78
2021/05/10 04:21:20;;;;;;;18.12;3.42;;;;;;;12.17;75.31;98472.47;4436246;32;20041;-78
2021/05/10 04:23:45;;;;;;;18.45;3.65;;;;;;;12.19;75.40;98483.25;4439025;32;20196;-77
2021/05/10 04:26:11;;;;;;;28.02;3.72;;;;;;;12.22;75.16;98485.84;4437379;32;20069;-78
2021/05/10 04:28:38;;;;;;;22.77;4.47;;;;;;;12.20;75.23;98490.44;4433518;32;20093;-78
2021/05/10 04:31:04;;;;;;;18.25;3.15;;;;;;;12.35;74.88;98491.03;4435482;32;20549;-78
2021/05/10 04:33:32;;;;;;;15.52;2.80;;;;;;;12.42;74.71;98480.06;4439360;32;20065;-78
2021/05/10 04:35:59;;;;;;;16.67;4.15;;;;;;;12.49;74.02;98490.09;4434445;32;20096;-78
2021/05/10 04:38:25;;;;;;;22.85;4.20;;;;;;;12.65;73.26;98495.03;4439168;32;20311;-78
2021/05/10 04:40:54;;;;;;;17.08;3.40;;;;;;;12.76;72.73;98504.31;4439041;32;20077;-78
2021/05/10 04:43:21;;;;;;;16.10;3.53;;;;;;;12.91;72.19;98507.72;4438502;32;20033;-78
2021/05/10 04:45:47;;;;;;;17.00;3.47;;;;;;;12.88;72.16;98505.91;4438574;32;20072;-78
2021/05/10 04:48:14;;;;;;;13.32;2.58;;;;;;;13.06;71.54;98513.94;4434776;32;20047;-78
2021/05/10 04:50:39;;;;;;;14.87;2.85;;;;;;;13.10;71.04;98508.81;4436938;32;20120;-78
2021/05/10 04:53:13;;;;;;;12.50;2.80;;;;;;;13.19;70.56;98505.00;4435996;32;20061;-78
2021/05/10 04:55:39;;;;;;;23.12;4.05;;;;;;;13.37;69.48;98499.63;4440599;32;20092;-78
2021/05/10 04:58:05;;;;;;;17.62;3.40;;;;;;;13.47;69.43;98505.81;4438233;32;20077;-78
2021/05/10 05:00:31;;;;;;;17.92;3.25;;;;;;;13.50;69.27;98501.97;4436502;32;20087;-78
2021/05/10 05:02:57;;;;;;;17.10;3.58;;;;;;;13.49;69.26;98511.72;4420456;32;20065;-78
2021/05/10 05:05:22;;;;;;;17.85;3.45;;;;;;;13.59;68.58;98518.66;4421918;32;20056;-78
2021/05/10 05:07:48;;;;;;;13.45;3.33;;;;;;;13.76;68.25;98520.22;4422475;32;20328;-78
2021/05/10 05:10:14;;;;;;;21.67;3.83;;;;;;;13.86;68.06;98515.06;4423106;32;20076;-78
2021/05/10 05:12:40;;;;;;;16.25;2.80;;;;;;;14.00;67.54;98519.72;4424254;32;20091;-78
2021/05/10 05:15:08;;;;;;;18.45;3.83;;;;;;;14.09;67.42;98523.03;4422350;32;20081;-78
2021/05/10 05:17:34;;;;;;;17.73;3.25;;;;;;;14.17;67.18;98519.69;4422333;32;20062;-78
2021/05/10 05:20:01;;;;;;;14.38;2.97;;;;;;;14.14;67.19;98512.25;4423733;32;20496;-78
2021/05/10 05:22:27;;;;;;;17.73;3.42;;;;;;;14.18;66.41;98516.34;4414562;32;20240;-78
2021/05/10 05:24:56;;;;;;;19.25;3.35;;;;;;;14.39;66.03;98508.38;4408093;32;20085;-78
2021/05/10 05:27:25;;;;;;;19.90;3.28;;;;;;;14.51;65.36;98504.97;4408462;32;20100;-78
2021/05/10 05:29:51;;;;;;;13.25;2.62;;;;;;;14.47;65.63;98503.69;4408665;32;20456;-78
2021/05/10 05:32:16;;;;;;;21.40;3.70;;;;;;;14.49;65.51;98496.25;4411839;32;20442;-78
2021/05/10 05:34:42;;;;;;;18.37;3.40;;;;;;;14.51;65.50;98501.41;4408332;32;20046;-78
2021/05/10 05:37:08;;;;;;;19.25;3.30;;;;;;;14.34;65.68;98503.47;4412259;32;20038;-78
2021/05/10 05:39:33;;;;;;;16.05;3.53;;;;;;;14.46;65.43;98502.16;4414046;32;20014;-78
2021/05/10 05:41:59;;;;;;;18.08;2.90;;;;;;;14.48;65.86;98499.59;4413218;32;20148;-78
2021/05/10 05:44:25;;;;;;;16.35;3.60;;;;;;;14.53;65.80;98510.91;4412323;32;20026;-78
2021/05/10 05:46:59;;;;;;;22.87;4.35;;;;;;;14.47;65.80;98503.69;4412713;32;21019;-78
2021/05/10 05:49:25;;;;;;;15.02;3.50;;;;;;;14.41;65.84;98506.56;4409387;32;20050;-78
2021/05/10 05:51:51;;;;;;;13.93;3.62;;;;;;;14.48;65.34;98505.25;4408539;32;20073;-78
2021/05/10 05:54:17;;;;;;;22.05;3.97;;;;;;;14.50;65.63;98519.62;4413589;32;20531;-78
2021/05/10 05:56:43;;;;;;;24.90;4.28;;;;;;;14.44;65.42;98513.22;4409719;32;20072;-78
2021/05/10 05:59:09;;;;;;;18.80;3.80;;;;;;;14.36;66.14;98518.62;4412701;32;20062;-78
2021/05/10 06:01:35;;;;;;;14.23;3.67;;;;;;;14.38;66.17;98524.56;4412021;32;20055;-78
2021/05/10 06:04:01;;;;;;;18.62;3.40;;;;;;;14.40;66.08;98529.72;4413414;32;20034;-78
2021/05/10 06:06:27;;;;;;;17.92;3.53;;;;;;;14.36;66.08;98527.12;4407177;32;20134;-79
2021/05/10 06:08:54;;;;;;;19.17;3.70;;;;;;;14.49;64.88;98532.25;4413144;32;20101;-77
2021/05/10 06:11:19;;;;;;;20.20;4.07;;;;;;;14.47;64.98;98534.81;4410928;32;20093;-78
2021/05/10 06:13:45;;;;;;;26.05;3.80;;;;;;;14.56;64.94;98529.66;4413621;32;20046;-78
2021/05/10 06:16:11;;;;;;;17.27;3.60;;;;;;;14.56;64.85;98529.66;4403991;32;20034;-78
2021/05/10 06:18:37;;;;;;;15.52;3.37;;;;;;;14.66;64.90;98530.91;4413108;32;20085;-78
2021/05/10 06:21:06;;;;;;;17.42;3.55;;;;;;;14.75;64.66;98532.69;4413308;32;20444;-78
2021/05/10 06:23:32;;;;;;;18.35;4.55;;;;;;;14.88;64.35;98527.25;4409321;32;20074;-78
2021/05/10 06:25:59;;;;;;;19.55;3.85;;;;;;;14.94;63.88;98523.09;4408562;32;20093;-78
2021/05/10 06:28:25;;;;;;;24.77;3.92;;;;;;;14.87;63.83;98525.69;4409771;32;20461;-78
2021/05/10 06:30:51;;;;;;;18.58;3.22;;;;;;;14.81;64.06;98522.13;4411039;32;20077;-78
2021/05/10 06:33:16;;;;;;;18.30;3.62;;;;;;;14.72;64.31;98526.00;4404648;32;20095;-79
2021/05/10 06:35:42;;;;;;;14.98;3.00;;;;;;;14.96;63.44;98522.56;4407520;32;20090;-77
2021/05/10 06:38:12;;;;;;;16.20;3.72;;;;;;;14.96;63.13;98528.22;4406311;32;20074;-76
2021/05/10 06:40:38;;;;;;;18.27;2.72;;;;;;;15.03;62.59;98530.53;4403565;32;20086;-77
2021/05/10 06:43:05;;;;;;;17.90;2.37;;;;;;;15.00;62.72;98523.84;4406201;32;20065;-75
2021/05/10 06:45:31;;;;;;;12.63;3.08;;;;;;;14.91;63.03;98529.03;4403337;32;20140;-79
2021/05/10 06:47:57;;;;;;;19.15;2.80;;;;;;;14.83;62.98;98526.00;4400694;32;20046;-79
2021/05/10 06:50:24;;;;;;;19.65;4.57;;;;;;;14.86;62.70;98524.16;4408345;32;20077;-77
2021/05/10 06:52:49;;;;;;;19.65;4.03;;;;;;;14.99;62.63;98518.69;4411012;32;20383;-79
2021/05/10 06:55:15;;;;;;;22.42;3.97;;;;;;;15.09;62.24;98520.72;4399418;32;20116;-76
2021/05/10 06:57:41;;;;;;;19.67;3.65;;;;;;;15.07;62.23;98506.28;4404489;32;20030;-76
2021/05/10 07:00:08;;;;;;;18.40;2.60;;;;;;;15.18;61.93;98511.12;4394259;32;20065;-77
2021/05/10 07:02:34;;;;;;;20.27;3.22;;;;;;;15.20;61.63;98512.16;4399137;32;20069;-77
2021/05/10 07:05:00;;;;;;;20.30;3.45;;;;;;;15.29;61.58;98505.41;4396899;32;20046;-78
2021/05/10 07:07:26;;;;;;;17.20;3.05;;;;;;;15.47;60.75;98507.66;4395099;32;20073;-77
2021/05/10 07:09:53;;;;;;;12.55;3.67;;;;;;;15.42;61.14;98511.28;4395397;32;20050;-76
2021/05/10 07:12:18;;;;;;;21.75;3.62;;;;;;;15.33;61.03;98522.87;4390878;32;20078;-77
2021/05/10 07:14:44;;;;;;;23.67;3.17;;;;;;;15.19;61.34;98527.59;4399946;32;20060;-76
2021/05/10 07:17:10;;;;;;;19.70;3.53;;;;;;;15.30;61.23;98513.38;4396640;32;20079;-77
2021/05/10 07:19:35;;;;;;;15.32;3.30;;;;;;;15.52;60.38;98529.50;4398032;32;20796;-77
2021/05/10 07:22:02;;;;;;;15.23;2.72;;;;;;;15.81;59.82;98528.78;4396234;32;20478;-76
2021/05/10 07:24:27;;;;;;;13.93;3.20;;;;;;;15.95;58.65;98521.97;4397588;32;20077;-77
2021/05/10 07:26:55;;;;;;;19.62;3.17;;;;;;;15.70;59.27;98526.81;4397866;32;20486;-77
2021/05/10 07:29:21;;;;;;;18.15;3.70;;;;;;;15.59;59.61;98507.03;4394775;32;20039;-79
2021/05/10 07:31:47;;;;;;;16.02;2.50;;;;;;;15.75;59.45;98522.37;4400423;32;20070;-77
2021/05/10 07:34:13;;;;;;;17.33;2.67;;;;;;;15.70;58.80;98526.03;4396808;32;20046;-79
2021/05/10 07:36:39;;;;;;;15.00;3.50;;;;;;;15.42;59.32;98522.63;4402200;32;20367;-77
2021/05/10 07:39:06;;;;;;;14.13;2.85;;;;;;;15.30;60.05;98515.44;4398224;32;20070;-77
2021/05/10 07:41:31;;;;;;;20.15;2.92;;;;;;;15.49;60.26;98517.16;4398335;32;21089;-75
2021/05/10 07:43:57;;;;;;;13.38;2.70;;;;;;;15.85;59.14;98507.34;4399262;32;20383;-77
2021/05/10 07:46:24;;;;;;;15.95;3.05;;;;;;;16.18;57.96;98516.88;4399907;32;20472;-79
2021/05/10 07:48:49;;;;;;;17.75;2.62;;;;;;;16.57;56.41;98509.50;4402317;32;20113;-79
2021/05/10 07:51:15;;;;;;;18.55;2.80;;;;;;;16.64;55.98;98511.78;4396736;32;20092;-78
2021/05/10 07:53:41;;;;;;;11.02;1.85;;;;;;;16.45;55.61;98516.63;4395114;32;20382;-76
2021/05/10 07:56:07;;;;;;;12.18;2.20;;;;;;;16.43;56.07;98519.22;4398458;32;20038;-78
2021/05/10 07:58:36;;;;;;;16.67;2.17;;;;;;;16.46;56.18;98514.53;4398830;32;20120;-77
2021/05/10 08:01:03;;;;;;;20.60;3.28;;;;;;;16.22;56.32;98526.62;4401267;32;20123;-77
2021/05/10 08:03:30;;;;;;;16.05;2.33;;;;;;;16.24;57.01;98514.75;4401993;32;20186;-78
2021/05/10 08:05:56;;;;;;;12.25;2.78;;;;;;;16.50;56.26;98524.31;4395832;32;20138;-78
2021/05/10 08:08:23;;;;;;;12.70;2.37;;;;;;;17.13;55.33;98523.81;4398644;32;20050;-77
2021/05/10 08:10:50;;;;;;;17.48;2.83;;;;;;;17.43;53.55;98539.44;4394596;32;20143;-77
2021/05/10 08:13:17;;;;;;;13.00;2.80;;;;;;;17.36;52.76;98534.34;4397290;32;20178;-76
2021/05/10 08:15:44;;;;;;;16.98;2.60;;;;;;;17.33;53.79;98524.06;4396592;32;20057;-76
2021/05/10 08:18:11;;;;;;;17.10;2.72;;;;;;;17.29;53.90;98532.13;4397565;32;20077;-76
2021/05/10 08:20:38;;;;;;;12.68;2.05;;;;;;;16.97;53.94;98545.44;4401212;32;20131;-76
2021/05/10 08:23:04;;;;;;;15.75;2.22;;;;;;;17.17;53.61;98530.75;4397364;32;20181;-76
2021/05/10 08:25:30;;;;;;;11.63;2.50;;;;;;;17.28;52.99;98529.81;4399667;32;20401;-78
2021/05/10 08:27:56;;;;;;;13.85;2.25;;;;;;;17.65;52.42;98512.78;4400787;32;20137;-75
2021/05/10 08:30:22;;;;;;;12.85;2.47;;;;;;;18.10;51.06;98524.97;4399778;32;20068;-78
2021/05/10 08:32:47;;;;;;;18.15;2.42;;;;;;;18.43;49.19;98524.41;4400338;32;20033;-78
2021/05/10 08:35:14;;;;;;;13.13;2.12;;;;;;;18.17;49.99;98510.13;4399850;32;20141;-79
2021/05/10 08:37:40;;;;;;;14.10;2.78;;;;;;;18.30;49.39;98521.53;4396112;32;20058;-78
2021/05/10 08:40:07;;;;;;;15.70;2.40;;;;;;;18.35;49.11;98534.12;4398060;32;20067;-78
2021/05/10 08:42:33;;;;;;;14.35;2.65;;;;;;;17.98;49.67;98532.16;4397281;32;20128;-78
2021/05/10 08:45:00;;;;;;;17.48;2.03;;;;;;;18.05;49.64;98533.59;4399453;32;20511;-76
2021/05/10 08:47:32;;;;;;;15.43;2.58;;;;;;;17.97;50.07;98533.47;4398028;32;20164;-78
2021/05/10 08:49:59;;;;;;;13.93;2.03;;;;;;;17.69;50.89;98544.50;4397768;32;20034;-78
2021/05/10 08:52:26;;;;;;;10.73;2.12;;;;;;;17.88;50.66;98548.88;4398538;32;20042;-78
2021/05/10 08:54:52;;;;;;;11.70;2.08;;;;;;;17.78;50.75;98547.75;4398044;32;20077;-77
2021/05/10 08:57:18;;;;;;;10.70;2.45;;;;;;;17.86;50.41;98548.62;4400156;32;20078;-78
2021/05/10 08:59:44;;;;;;;9.68;1.80;;;;;;;17.88;49.73;98557.41;4399850;32;20985;-78
2021/05/10 09:02:10;;;;;;;9.75;2.12;;;;;;;17.39;50.72;98560.94;4400862;32;20113;-79
2021/05/10 09:04:39;;;;;;;10.43;1.95;;;;;;;16.97;51.76;98553.97;4401928;32;20038;-81
2021/05/10 09:07:20;;;;;;;14.48;2.35;;;;;;;16.93;52.47;98550.66;4405653;32;20109;-77
2021/05/10 09:10:04;;;;;;;10.77;2.22;;;;;;;17.08;51.98;98562.38;4400982;32;20089;-78
2021/05/10 09:12:52;;;;;;;15.68;1.90;;;;;;;17.01;52.04;98571.50;4400931;32;20085;-77
2021/05/10 09:15:36;;;;;;;12.73;2.37;;;;;;;17.14;51.75;98570.81;4399992;32;20502;-78
2021/05/10 09:18:04;;;;;;;7.78;1.80;;;;;;;17.57;50.90;98580.09;4402515;32;20188;-79
2021/05/10 09:23:13;;;;;;;13.88;1.90;;;;;;;17.99;49.78;98573.53;3991643;31;15152783;-78
2021/05/10 09:31:03;;;;;;;13.25;2.28;;;;;;;17.62;50.89;98587.81;3988246;32;15022766;-79
2021/05/10 09:33:29;;;;;;;12.90;2.03;;;;;;;17.62;50.89;98587.81;4437414;32;20312;-78
2021/05/10 09:38:36;;;;;;;11.07;2.12;;;;;;;16.81;57.90;98591.13;3973668;32;15024777;-83
2021/05/10 09:43:40;;;;;;;15.02;2.72;;;;;;;16.59;59.09;98597.00;3990679;31;15023907;-81
2021/05/10 09:46:11;;;;;;;14.68;2.25;;;;;;;16.59;59.09;98597.00;4447211;32;20411;-81
2021/05/10 09:48:39;;;;;;;12.88;2.28;;;;;;;16.04;60.45;98598.22;4447755;32;20063;-79
2021/05/10 09:51:08;;;;;;;7.95;1.83;;;;;;;15.98;60.78;98597.50;4445025;32;20045;-79
2021/05/10 09:58:55;;;;;;;17.85;3.00;;;;;;;17.67;57.76;98592.63;3983720;32;15026995;-82
2021/05/10 10:01:22;;;;;;;14.45;2.25;;;;;;;17.67;57.76;98592.63;4430780;32;20073;-78
2021/05/10 10:03:51;;;;;;;6.45;1.90;;;;;;;17.95;54.06;98598.72;4419621;32;20077;-82
2021/05/10 10:06:18;;;;;;;16.20;2.15;;;;;;;18.47;51.15;98609.53;4419526;32;20080;-83
2021/05/10 10:08:46;;;;;;;8.25;1.60;;;;;;;18.68;51.18;98607.63;4419394;32;20112;-77
2021/05/10 10:11:17;;;;;;;17.40;2.17;;;;;;;18.61;50.22;98608.25;4421453;32;20125;-79
2021/05/10 10:13:44;;;;;;;13.27;1.80;;;;;;;18.50;50.34;98611.28;4416896;32;20235;-82
2021/05/10 10:16:11;;;;;;;8.95;1.75;;;;;;;18.36;49.59;98607.63;4415022;32;20045;-78
2021/05/10 10:18:39;;;;;;;9.38;1.70;;;;;;;18.28;49.26;98614.50;4418330;32;20073;-81
2021/05/10 10:21:07;;;;;;;11.23;1.62;;;;;;;17.95;49.46;98615.00;4420528;32;20048;-80
2021/05/10 10:23:35;;;;;;;11.65;2.53;;;;;;;17.52;49.17;98606.56;4421001;32;20081;-79
2021/05/10 10:26:04;;;;;;;14.98;1.55;;;;;;;17.62;49.20;98617.00;4420015;32;20042;-81
2021/05/10 10:28:30;;;;;;;14.00;1.75;;;;;;;17.98;50.06;98605.38;4418324;32;20105;-79
2021/05/10 10:36:26;;;;;;;14.70;2.10;;;;;;;20.44;44.44;98620.22;3977694;32;15022400;-80
2021/05/10 10:44:42;;;;;;;9.98;1.67;;;;;;;19.10;48.93;98677.81;3975004;32;15027028;-78
2021/05/10 10:47:11;;;;;;;10.93;1.67;;;;;;;19.10;48.93;98677.81;4439604;32;20629;-78
2021/05/10 10:49:39;;;;;;;7.97;1.83;;;;;;;16.51;59.01;98684.81;4442024;32;20037;-82
2021/05/10 10:52:23;;;;;;;6.32;1.37;;;;;;;15.29;65.52;98678.25;4441678;32;20065;-85
2021/05/10 10:57:49;;;;;;;4.87;1.48;;;;;;;14.69;71.12;98648.78;3992933;31;15013543;-81
2021/05/10 11:00:18;;;;;;;5.37;1.10;;;;;;;14.69;71.12;98648.78;4450407;32;20080;-80
2021/05/10 11:02:50;;;;;;;5.45;1.15;;;;;;;14.41;71.61;98641.59;4435798;32;20030;-86
2021/05/10 11:10:55;;;;;;;8.57;1.40;;;;;;;16.34;65.64;98652.94;3970206;32;15021290;-84
2021/05/10 11:24:05;;;;;;;7.55;1.30;;;;;;;19.21;54.17;98649.09;3937353;32;15023400;-83
2021/05/10 11:31:47;;;;;;;7.33;1.10;;;;;;;21.42;50.93;98653.97;3995183;31;15013554;-76
2021/05/10 11:34:15;;;;;;;5.70;1.30;;;;;;;21.42;50.93;98653.97;4449981;32;20158;-78
2021/05/10 11:36:51;;;;;;;8.07;1.95;;;;;;;21.56;48.48;98643.19;4447382;32;20127;-79
2021/05/10 11:39:27;;;;;;;4.18;1.37;;;;;;;21.87;46.07;98647.00;4452376;32;20041;-79
2021/05/10 11:41:57;;;;;;;13.00;1.60;;;;;;;21.90;45.12;98658.09;4448917;32;20102;-84
2021/05/10 11:44:28;;;;;;;7.12;1.73;;;;;;;22.03;46.05;98660.81;4432593;32;20080;-81
2021/05/10 11:46:56;;;;;;;10.52;1.30;;;;;;;21.54;45.86;98660.94;4448354;32;20127;-80
2021/05/10 11:52:16;;;;;;;6.00;1.83;;;;;;;20.34;48.47;98659.16;3970145;31;15707043;-78
2021/05/10 11:57:27;;;;;;;12.55;2.62;;;;;;;20.30;50.54;98650.94;3978347;32;15024121;-76
2021/05/10 12:02:32;;;;;;;5.30;1.20;;;;;;;20.42;48.81;98651.44;3936991;32;15014331;-77
2021/05/10 12:05:04;;;;;;;6.72;1.67;;;;;;;20.21;48.84;98659.19;4402866;32;20426;-77
2021/05/10 12:07:32;;;;;;;6.90;1.50;;;;;;;19.93;47.52;98664.75;4393387;32;20139;-78
2021/05/10 12:15:23;;;;;;;5.18;0.93;;;;;;;17.52;57.04;98689.03;3978976;32;15024213;-77
2021/05/10 12:17:52;;;;;;;4.10;1.08;;;;;;;17.52;57.04;98689.03;4433702;32;20029;-78
2021/05/10 12:20:22;;;;;;;5.47;1.17;;;;;;;17.15;59.16;98692.50;4431150;32;20077;-79
2021/05/10 12:33:20;;;;;;;8.18;1.23;;;;;;;18.63;53.44;98691.09;3972312;32;15022333;-80
2021/05/10 12:35:50;;;;;;;8.68;1.50;;;;;;;18.63;53.44;98691.09;4424664;32;20231;-78
2021/05/10 12:41:18;;;;;;;8.27;1.30;;;;;;;17.59;58.12;98717.62;3992266;31;15016609;-79
2021/05/10 12:43:46;;;;;;;5.65;1.10;;;;;;;17.35;59.74;98753.81;4440117;32;20175;-76
2021/05/10 12:46:12;;;;;;;4.75;1.20;;;;;;;16.98;61.44;98728.06;4448233;32;20045;-79
2021/05/10 12:48:43;;;;;;;6.03;1.02;;;;;;;16.93;61.01;98726.81;4444377;32;20155;-76
2021/05/10 12:51:14;;;;;;;4.97;1.23;;;;;;;17.37;61.16;98726.38;4444595;32;20414;-77
2021/05/10 12:53:43;;;;;;;5.35;1.00;;;;;;;18.01;59.13;98730.28;4443859;32;20083;-77
2021/05/10 12:56:14;;;;;;;4.43;1.00;;;;;;;18.15;54.77;98720.53;4444549;32;20064;-78